Time,TemperatureF,DewpointF,PressureIn,WindDirection,WindDirectionDegrees,WindSpeedMPH,WindSpeedGustMPH,Humidity,HourlyPrecipIn,Conditions,Clouds,dailyrainin,SoftwareType,DateUTC
2013-03-14 00:00:00,37.9,21.4,30.14,NW,311,1.0,1.0,51,0.00,,,0.00,Wunderground v.1.15,2013-03-14 04:00:00,
2013-03-14 00:05:00,37.7,21.6,30.14,West,281,1.0,1.0,52,0.00,,,0.00,Wunderground v.1.15,2013-03-14 04:05:00,
2013-03-14 00:10:00,37.5,21.5,30.14,NW,304,0.0,0.0,52,0.00,,,0.00,Wunderground v.1.15,2013-03-14 04:10:00,
2013-03-14 00:15:00,37.3,21.7,30.14,NW,307,0.0,0.0,53,0.00,,,0.00,Wunderground v.1.15,2013-03-14 04:15:00,
2013-03-14 00:25:00,36.8,21.7,30.15,South,186,0.0,0.0,54,0.00,,,0.00,Wunderground v.1.15,2013-03-14 04:25:00,
2013-03-14 00:30:00,36.6,21.5,30.15,NW,308,0.0,0.0,54,0.00,,,0.00,Wunderground v.1.15,2013-03-14 04:30:00,
2013-03-14 00:35:00,36.5,21.8,30.15,NW,309,0.0,0.0,55,0.00,,,0.00,Wunderground v.1.15,2013-03-14 04:35:00,
2013-03-14 00:40:00,36.2,21.6,30.15,South,185,0.0,3.0,55,0.00,,,0.00,Wunderground v.1.15,2013-03-14 04:40:00,
2013-03-14 00:45:00,36.1,21.9,30.16,NNW,336,0.0,3.0,56,0.00,,,0.00,Wunderground v.1.15,2013-03-14 04:45:00,
2013-03-14 00:50:00,36.0,21.8,30.16,North,5,0.0,0.0,56,0.00,,,0.00,Wunderground v.1.15,2013-03-14 04:50:00,
2013-03-14 00:55:00,35.8,22.0,30.16,SW,236,0.0,0.0,57,0.00,,,0.00,Wunderground v.1.15,2013-03-14 04:55:00,
2013-03-14 01:00:00,35.6,21.9,30.16,WSW,256,0.0,0.0,57,0.00,,,0.00,Wunderground v.1.15,2013-03-14 05:00:00,
2013-03-14 01:05:00,35.5,21.8,30.16,WNW,293,0.0,0.0,57,0.00,,,0.00,Wunderground v.1.15,2013-03-14 05:05:00,
2013-03-14 01:15:00,35.5,21.8,30.17,WNW,299,1.0,2.0,57,0.00,,,0.00,Wunderground v.1.15,2013-03-14 05:15:00,
2013-03-14 01:25:00,35.3,20.7,30.17,WSW,252,1.0,1.0,55,0.00,,,0.00,Wunderground v.1.15,2013-03-14 05:25:00,
2013-03-14 01:30:00,35.3,20.7,30.17,WNW,290,1.0,1.0,55,0.00,,,0.00,Wunderground v.1.15,2013-03-14 05:30:00,
2013-03-14 01:40:00,35.0,20.9,30.17,NW,305,1.0,2.0,56,0.00,,,0.00,Wunderground v.1.15,2013-03-14 05:40:00,
2013-03-14 01:45:00,34.9,20.4,30.17,NW,311,0.0,2.0,55,0.00,,,0.00,Wunderground v.1.15,2013-03-14 05:45:00,
2013-03-14 01:50:00,34.7,20.6,30.17,NW,312,0.0,0.0,56,0.00,,,0.00,Wunderground v.1.15,2013-03-14 05:50:00,
2013-03-14 02:00:00,34.4,19.9,30.17,NW,322,0.0,1.0,55,0.00,,,0.00,Wunderground v.1.15,2013-03-14 06:00:00,
2013-03-14 02:05:00,34.4,19.9,30.17,South,189,0.0,1.0,55,0.00,,,0.00,Wunderground v.1.15,2013-03-14 06:05:00,
2013-03-14 02:15:00,34.4,19.9,30.18,West,270,1.0,1.0,55,0.00,,,0.00,Wunderground v.1.15,2013-03-14 06:15:00,
2013-03-14 02:25:00,34.1,19.6,30.17,West,275,0.0,0.0,55,0.00,,,0.00,Wunderground v.1.15,2013-03-14 06:25:00,
2013-03-14 02:30:00,34.1,19.6,30.17,West,275,1.0,3.0,55,0.00,,,0.00,Wunderground v.1.15,2013-03-14 06:30:00,
2013-03-14 02:35:00,34.1,19.2,30.17,WNW,286,1.0,3.0,54,0.00,,,0.00,Wunderground v.1.15,2013-03-14 06:35:00,
2013-03-14 02:40:00,34.0,19.1,30.18,WNW,294,1.0,1.0,54,0.00,,,0.00,Wunderground v.1.15,2013-03-14 06:40:00,
2013-03-14 02:45:00,34.0,19.1,30.17,WNW,287,1.0,1.0,54,0.00,,,0.00,Wunderground v.1.15,2013-03-14 06:45:00,
2013-03-14 02:50:00,34.0,19.1,30.17,WNW,295,1.0,2.0,54,0.00,,,0.00,Wunderground v.1.15,2013-03-14 06:50:00,
2013-03-14 02:55:00,33.9,19.0,30.17,West,279,1.0,2.0,54,0.00,,,0.00,Wunderground v.1.15,2013-03-14 06:55:00,
2013-03-14 03:00:00,33.7,19.2,30.17,WNW,287,0.0,0.0,55,0.00,,,0.00,Wunderground v.1.15,2013-03-14 07:00:00,
2013-03-14 03:05:00,33.5,19.0,30.17,NW,309,0.0,0.0,55,0.00,,,0.00,Wunderground v.1.15,2013-03-14 07:05:00,
2013-03-14 03:15:00,33.3,19.3,30.17,West,278,1.0,1.0,56,0.00,,,0.00,Wunderground v.1.15,2013-03-14 07:15:00,
2013-03-14 03:20:00,33.1,19.5,30.17,SSW,204,0.0,0.0,57,0.00,,,0.00,Wunderground v.1.15,2013-03-14 07:20:00,
2013-03-14 03:30:00,32.8,19.6,30.17,West,272,0.0,0.0,58,0.00,,,0.00,Wunderground v.1.15,2013-03-14 07:30:00,
2013-03-14 03:35:00,32.6,19.0,30.17,West,280,0.0,0.0,57,0.00,,,0.00,Wunderground v.1.15,2013-03-14 07:35:00,
2013-03-14 03:40:00,32.5,19.3,30.17,West,281,0.0,1.0,58,0.00,,,0.00,Wunderground v.1.15,2013-03-14 07:40:00,
2013-03-14 03:45:00,32.4,19.3,30.17,West,281,0.0,1.0,58,0.00,,,0.00,Wunderground v.1.15,2013-03-14 07:45:00,
2013-03-14 03:55:00,32.1,19.4,30.17,West,281,0.0,0.0,59,0.00,,,0.00,Wunderground v.1.15,2013-03-14 07:55:00,
2013-03-14 04:05:00,31.8,19.1,30.16,West,281,0.0,0.0,59,0.00,,,0.00,Wunderground v.1.15,2013-03-14 08:05:00,
2013-03-14 04:15:00,31.5,19.2,30.17,West,281,0.0,0.0,60,0.00,,,0.00,Wunderground v.1.15,2013-03-14 08:15:00,
2013-03-14 04:20:00,31.3,19.0,30.17,West,281,0.0,0.0,60,0.00,,,0.00,Wunderground v.1.15,2013-03-14 08:20:00,
2013-03-14 04:25:00,31.1,19.6,30.17,West,281,0.0,0.0,62,0.00,,,0.00,Wunderground v.1.15,2013-03-14 08:25:00,
2013-03-14 04:30:00,30.8,19.7,30.16,West,281,0.0,0.0,63,0.00,,,0.00,Wunderground v.1.15,2013-03-14 08:30:00,
2013-03-14 04:35:00,30.6,19.9,30.17,West,281,0.0,0.0,64,0.00,,,0.00,Wunderground v.1.15,2013-03-14 08:35:00,
2013-03-14 04:40:00,30.3,19.9,30.17,West,281,0.0,0.0,65,0.00,,,0.00,Wunderground v.1.15,2013-03-14 08:40:00,
2013-03-14 04:45:00,30.0,20.0,30.17,West,281,0.0,0.0,66,0.00,,,0.00,Wunderground v.1.15,2013-03-14 08:45:00,
2013-03-14 04:50:00,29.7,19.7,30.17,West,281,0.0,0.0,66,0.00,,,0.00,Wunderground v.1.15,2013-03-14 08:50:00,
2013-03-14 04:55:00,29.5,19.9,30.17,West,281,0.0,0.0,67,0.00,,,0.00,Wunderground v.1.15,2013-03-14 08:55:00,
2013-03-14 05:05:00,29.3,19.0,30.17,West,281,0.0,0.0,65,0.00,,,0.00,Wunderground v.1.15,2013-03-14 09:05:00,
2013-03-14 05:15:00,29.3,20.4,30.17,West,281,0.0,0.0,69,0.00,,,0.00,Wunderground v.1.15,2013-03-14 09:15:00,
2013-03-14 05:25:00,29.0,20.1,30.18,West,281,0.0,0.0,69,0.00,,,0.00,Wunderground v.1.15,2013-03-14 09:25:00,
2013-03-14 05:30:00,28.9,20.3,30.18,West,281,0.0,0.0,70,0.00,,,0.00,Wunderground v.1.15,2013-03-14 09:30:00,
2013-03-14 05:35:00,28.7,20.1,30.18,West,281,0.0,0.0,70,0.00,,,0.00,Wunderground v.1.15,2013-03-14 09:35:00,
2013-03-14 05:40:00,28.7,19.8,30.18,West,281,0.0,0.0,69,0.00,,,0.00,Wunderground v.1.15,2013-03-14 09:40:00,
2013-03-14 05:45:00,28.8,20.2,30.18,West,281,0.0,0.0,70,0.00,,,0.00,Wunderground v.1.15,2013-03-14 09:45:00,
2013-03-14 05:50:00,28.8,20.2,30.19,West,281,0.0,0.0,70,0.00,,,0.00,Wunderground v.1.15,2013-03-14 09:50:00,
2013-03-14 05:55:00,28.7,19.8,30.19,West,281,0.0,0.0,69,0.00,,,0.00,Wunderground v.1.15,2013-03-14 09:55:00,
2013-03-14 06:00:00,28.7,19.8,30.19,West,281,0.0,0.0,69,0.00,,,0.00,Wunderground v.1.15,2013-03-14 10:00:00,
2013-03-14 06:05:00,28.6,19.7,30.19,West,281,0.0,0.0,69,0.00,,,0.00,Wunderground v.1.15,2013-03-14 10:05:00,
2013-03-14 06:15:00,28.4,19.9,30.19,West,281,0.0,0.0,70,0.00,,,0.00,Wunderground v.1.15,2013-03-14 10:15:00,
2013-03-14 06:20:00,28.4,19.9,30.20,West,281,0.0,0.0,70,0.00,,,0.00,Wunderground v.1.15,2013-03-14 10:20:00,
2013-03-14 06:25:00,28.4,19.9,30.20,West,281,0.0,0.0,70,0.00,,,0.00,Wunderground v.1.15,2013-03-14 10:25:00,
2013-03-14 06:30:00,28.3,20.1,30.20,West,281,0.0,0.0,71,0.00,,,0.00,Wunderground v.1.15,2013-03-14 10:30:00,
2013-03-14 06:35:00,28.2,20.0,30.20,West,281,0.0,0.0,71,0.00,,,0.00,Wunderground v.1.15,2013-03-14 10:35:00,
2013-03-14 06:40:00,28.1,19.9,30.20,West,281,0.0,0.0,71,0.00,,,0.00,Wunderground v.1.15,2013-03-14 10:40:00,
2013-03-14 06:50:00,28.1,20.2,30.21,West,281,0.0,0.0,72,0.00,,,0.00,Wunderground v.1.15,2013-03-14 10:50:00,
2013-03-14 06:55:00,28.1,20.2,30.21,West,281,0.0,0.0,72,0.00,,,0.00,Wunderground v.1.15,2013-03-14 10:55:00,
2013-03-14 07:05:00,28.1,19.6,30.21,West,281,0.0,0.0,70,0.00,,,0.00,Wunderground v.1.15,2013-03-14 11:05:00,
2013-03-14 07:15:00,28.2,19.7,30.21,West,281,0.0,0.0,70,0.00,,,0.00,Wunderground v.1.15,2013-03-14 11:15:00,
2013-03-14 07:20:00,28.1,19.6,30.22,West,281,0.0,0.0,70,0.00,,,0.00,Wunderground v.1.15,2013-03-14 11:20:00,
2013-03-14 07:25:00,28.2,19.7,30.22,West,281,0.0,0.0,70,0.00,,,0.00,Wunderground v.1.15,2013-03-14 11:25:00,
2013-03-14 07:30:00,28.2,19.7,30.22,West,281,0.0,0.0,70,0.00,,,0.00,Wunderground v.1.15,2013-03-14 11:30:00,
2013-03-14 07:35:00,28.2,19.7,30.23,West,281,0.0,0.0,70,0.00,,,0.00,Wunderground v.1.15,2013-03-14 11:35:00,
2013-03-14 07:40:00,28.2,20.0,30.23,West,281,0.0,0.0,71,0.00,,,0.00,Wunderground v.1.15,2013-03-14 11:40:00,
2013-03-14 07:45:00,28.2,19.7,30.23,West,281,0.0,0.0,70,0.00,,,0.00,Wunderground v.1.15,2013-03-14 11:45:00,
2013-03-14 07:50:00,28.2,19.7,30.23,West,281,0.0,0.0,70,0.00,,,0.00,Wunderground v.1.15,2013-03-14 11:50:00,
2013-03-14 07:55:00,28.2,20.0,30.23,West,281,0.0,0.0,71,0.00,,,0.00,Wunderground v.1.15,2013-03-14 11:55:00,
2013-03-14 08:00:00,28.2,19.7,30.23,SSE,156,0.0,0.0,70,0.00,,,0.00,Wunderground v.1.15,2013-03-14 12:00:00,
2013-03-14 08:05:00,28.3,19.8,30.23,SSE,156,0.0,0.0,70,0.00,,,0.00,Wunderground v.1.15,2013-03-14 12:05:00,
2013-03-14 08:15:00,28.9,20.0,30.24,West,261,0.0,0.0,69,0.00,,,0.00,Wunderground v.1.15,2013-03-14 12:15:00,
2013-03-14 08:20:00,29.1,20.2,30.24,West,261,0.0,0.0,69,0.00,,,0.00,Wunderground v.1.15,2013-03-14 12:20:00,
2013-03-14 08:25:00,29.3,20.0,30.24,West,261,0.0,0.0,68,0.00,,,0.00,Wunderground v.1.15,2013-03-14 12:25:00,
2013-03-14 08:35:00,30.1,20.5,30.24,West,277,0.0,1.0,67,0.00,,,0.00,Wunderground v.1.15,2013-03-14 12:35:00,
2013-03-14 08:45:00,30.8,20.8,30.24,SE,140,0.0,2.0,66,0.00,,,0.00,Wunderground v.1.15,2013-03-14 12:45:00,
2013-03-14 08:55:00,31.6,21.2,30.24,SW,215,0.0,0.0,65,0.00,,,0.00,Wunderground v.1.15,2013-03-14 12:55:00,
2013-03-14 09:05:00,32.5,20.9,30.24,WNW,296,1.0,1.0,62,0.00,,,0.00,Wunderground v.1.15,2013-03-14 13:05:00,
2013-03-14 09:15:00,33.4,21.0,30.24,WNW,286,1.0,6.0,60,0.00,,,0.00,Wunderground v.1.15,2013-03-14 13:15:00,
2013-03-14 09:25:00,34.0,21.2,30.25,WNW,296,1.0,2.0,59,0.00,,,0.00,Wunderground v.1.15,2013-03-14 13:25:00,
2013-03-14 09:30:00,34.4,21.1,30.25,NW,323,1.0,1.0,58,0.00,,,0.00,Wunderground v.1.15,2013-03-14 13:30:00,
2013-03-14 09:35:00,34.7,21.0,30.25,WNW,296,1.0,1.0,57,0.00,,,0.00,Wunderground v.1.15,2013-03-14 13:35:00,
2013-03-14 09:45:00,35.1,21.4,30.25,NW,314,2.0,2.0,57,0.00,,,0.00,Wunderground v.1.15,2013-03-14 13:45:00,
2013-03-14 09:50:00,35.3,21.2,30.25,WNW,300,2.0,2.0,56,0.00,,,0.00,Wunderground v.1.15,2013-03-14 13:50:00,
2013-03-14 09:55:00,35.5,20.9,30.25,NNW,333,2.0,2.0,55,0.00,,,0.00,Wunderground v.1.15,2013-03-14 13:55:00,
2013-03-14 10:00:00,35.8,20.8,30.24,SSE,160,3.0,5.0,54,0.00,,,0.00,Wunderground v.1.15,2013-03-14 14:00:00,
2013-03-14 10:05:00,36.1,21.5,30.24,WNW,297,1.0,5.0,55,0.00,,,0.00,Wunderground v.1.15,2013-03-14 14:05:00,
2013-03-14 10:15:00,36.5,21.0,30.24,North,360,2.0,2.0,53,0.00,,,0.00,Wunderground v.1.15,2013-03-14 14:15:00,
2013-03-14 10:20:00,36.6,21.1,30.25,West,279,2.0,2.0,53,0.00,,,0.00,Wunderground v.1.15,2013-03-14 14:20:00,
2013-03-14 10:25:00,37.0,21.0,30.25,West,273,2.0,4.0,52,0.00,,,0.00,Wunderground v.1.15,2013-03-14 14:25:00,
2013-03-14 10:30:00,37.3,21.3,30.25,NW,311,2.0,2.0,52,0.00,,,0.00,Wunderground v.1.15,2013-03-14 14:30:00,
2013-03-14 10:35:00,37.8,21.7,30.25,West,267,2.0,2.0,52,0.00,,,0.00,Wunderground v.1.15,2013-03-14 14:35:00,
2013-03-14 10:40:00,38.2,21.6,30.25,WSW,251,1.0,4.0,51,0.00,,,0.00,Wunderground v.1.15,2013-03-14 14:40:00,
2013-03-14 10:50:00,38.4,21.4,30.25,WNW,295,2.0,5.0,50,0.00,,,0.00,Wunderground v.1.15,2013-03-14 14:50:00,
2013-03-14 10:55:00,38.7,21.6,30.25,SW,214,2.0,5.0,50,0.00,,,0.00,Wunderground v.1.15,2013-03-14 14:55:00,
2013-03-14 11:00:00,38.9,21.8,30.25,West,279,2.0,3.0,50,0.00,,,0.00,Wunderground v.1.15,2013-03-14 15:00:00,
2013-03-14 11:05:00,39.1,22.0,30.25,SE,140,2.0,4.0,50,0.00,,,0.00,Wunderground v.1.15,2013-03-14 15:05:00,
2013-03-14 11:15:00,39.8,21.2,30.24,West,269,2.0,4.0,47,0.00,,,0.00,Wunderground v.1.15,2013-03-14 15:15:00,
2013-03-14 11:20:00,39.8,21.7,30.24,East,94,2.0,3.0,48,0.00,,,0.00,Wunderground v.1.15,2013-03-14 15:20:00,
2013-03-14 11:25:00,39.9,21.3,30.25,NNW,331,2.0,3.0,47,0.00,,,0.00,Wunderground v.1.15,2013-03-14 15:25:00,
2013-03-14 11:30:00,40.2,21.6,30.24,SSE,161,2.0,2.0,47,0.00,,,0.00,Wunderground v.1.15,2013-03-14 15:30:00,
2013-03-14 11:35:00,40.4,21.2,30.24,WSW,253,2.0,5.0,46,0.00,,,0.00,Wunderground v.1.15,2013-03-14 15:35:00,
2013-03-14 11:40:00,41.1,21.9,30.25,WNW,296,2.0,3.0,46,0.00,,,0.00,Wunderground v.1.15,2013-03-14 15:40:00,
2013-03-14 11:45:00,41.6,21.8,30.25,NE,46,2.0,4.0,45,0.00,,,0.00,Wunderground v.1.15,2013-03-14 15:45:00,
2013-03-14 11:55:00,42.2,21.8,30.24,WNW,295,3.0,3.0,44,0.00,,,0.00,Wunderground v.1.15,2013-03-14 15:55:00,
2013-03-14 12:05:00,42.3,21.9,30.24,NW,323,3.0,3.0,44,0.00,,,0.00,Wunderground v.1.15,2013-03-14 16:05:00,
2013-03-14 12:15:00,43.0,22.0,30.23,WSW,252,2.0,5.0,43,0.00,,,0.00,Wunderground v.1.15,2013-03-14 16:15:00,
2013-03-14 12:25:00,44.0,22.4,30.23,NW,315,2.0,4.0,42,0.00,,,0.00,Wunderground v.1.15,2013-03-14 16:25:00,
2013-03-14 12:30:00,44.2,22.5,30.23,WNW,282,2.0,2.0,42,0.00,,,0.00,Wunderground v.1.15,2013-03-14 16:30:00,
2013-03-14 12:35:00,44.5,22.8,30.22,NW,305,2.0,3.0,42,0.00,,,0.00,Wunderground v.1.15,2013-03-14 16:35:00,
2013-03-14 12:40:00,45.0,23.8,30.22,NW,323,2.0,2.0,43,0.00,,,0.00,Wunderground v.1.15,2013-03-14 16:40:00,
2013-03-14 12:45:00,45.4,23.6,30.22,NW,317,1.0,2.0,42,0.00,,,0.00,Wunderground v.1.15,2013-03-14 16:45:00,
2013-03-14 12:50:00,45.8,22.8,30.22,WNW,287,2.0,2.0,40,0.00,,,0.00,Wunderground v.1.15,2013-03-14 16:50:00,
2013-03-14 12:55:00,45.4,22.5,30.22,ESE,115,3.0,3.0,40,0.00,,,0.00,Wunderground v.1.15,2013-03-14 16:55:00,
2013-03-14 13:00:00,45.7,23.3,30.21,NW,317,3.0,3.0,41,0.00,,,0.00,Wunderground v.1.15,2013-03-14 17:00:00,
2013-03-14 13:05:00,46.1,22.5,30.21,WNW,293,2.0,3.0,39,0.00,,,0.00,Wunderground v.1.15,2013-03-14 17:05:00,
2013-03-14 13:15:00,46.0,24.2,30.21,South,183,3.0,3.0,42,0.00,,,0.00,Wunderground v.1.15,2013-03-14 17:15:00,
2013-03-14 13:20:00,46.1,23.7,30.20,West,279,2.0,2.0,41,0.00,,,0.00,Wunderground v.1.15,2013-03-14 17:20:00,
2013-03-14 13:25:00,46.5,23.4,30.20,SSE,167,2.0,2.0,40,0.00,,,0.00,Wunderground v.1.15,2013-03-14 17:25:00,
2013-03-14 13:30:00,46.7,24.2,30.20,NW,314,2.0,2.0,41,0.00,,,0.00,Wunderground v.1.15,2013-03-14 17:30:00,
2013-03-14 13:35:00,46.8,23.7,30.20,NW,311,2.0,5.0,40,0.00,,,0.00,Wunderground v.1.15,2013-03-14 17:35:00,
2013-03-14 13:40:00,47.1,23.4,30.20,South,182,2.0,3.0,39,0.00,,,0.00,Wunderground v.1.15,2013-03-14 17:40:00,
2013-03-14 13:45:00,47.4,24.3,30.19,NW,316,2.0,3.0,40,0.00,,,0.00,Wunderground v.1.15,2013-03-14 17:45:00,
2013-03-14 13:55:00,47.3,23.6,30.19,WNW,284,3.0,6.0,39,0.00,,,0.00,Wunderground v.1.15,2013-03-14 17:55:00,
2013-03-14 14:00:00,47.4,23.7,30.19,NW,325,3.0,3.0,39,0.00,,,0.00,Wunderground v.1.15,2013-03-14 18:00:00,
2013-03-14 14:05:00,47.6,23.8,30.19,SSW,194,2.0,3.0,39,0.00,,,0.00,Wunderground v.1.15,2013-03-14 18:05:00,
2013-03-14 14:15:00,48.2,24.4,30.18,SSE,165,3.0,3.0,39,0.00,,,0.00,Wunderground v.1.15,2013-03-14 18:15:00,
2013-03-14 14:20:00,48.3,24.5,30.18,East,94,3.0,3.0,39,0.00,,,0.00,Wunderground v.1.15,2013-03-14 18:20:00,
2013-03-14 14:25:00,48.7,24.2,30.17,WNW,298,4.0,4.0,38,0.00,,,0.00,Wunderground v.1.15,2013-03-14 18:25:00,
2013-03-14 14:30:00,48.8,24.9,30.17,NW,304,3.0,3.0,39,0.00,,,0.00,Wunderground v.1.15,2013-03-14 18:30:00,
2013-03-14 14:35:00,49.2,25.3,30.17,WNW,286,2.0,3.0,39,0.00,,,0.00,Wunderground v.1.15,2013-03-14 18:35:00,
2013-03-14 14:40:00,49.8,25.2,30.17,West,277,2.0,4.0,38,0.00,,,0.00,Wunderground v.1.15,2013-03-14 18:40:00,
2013-03-14 14:45:00,50.1,24.8,30.16,WNW,303,2.0,4.0,37,0.00,,,0.00,Wunderground v.1.15,2013-03-14 18:45:00,
2013-03-14 14:50:00,50.1,26.1,30.17,NW,322,3.0,5.0,39,0.00,,,0.00,Wunderground v.1.15,2013-03-14 18:50:00,
2013-03-14 15:00:00,50.3,24.3,30.16,WNW,293,3.0,5.0,36,0.00,,,0.00,Wunderground v.1.15,2013-03-14 19:00:00,
2013-03-14 15:05:00,50.4,25.1,30.16,NW,311,3.0,8.0,37,0.00,,,0.00,Wunderground v.1.15,2013-03-14 19:05:00,
2013-03-14 15:15:00,51.0,24.3,30.15,South,169,3.0,6.0,35,0.00,,,0.00,Wunderground v.1.15,2013-03-14 19:15:00,
2013-03-14 15:20:00,51.2,25.1,30.15,SE,126,3.0,4.0,36,0.00,,,0.00,Wunderground v.1.15,2013-03-14 19:20:00,
2013-03-14 15:30:00,51.4,24.6,30.15,WNW,302,3.0,3.0,35,0.00,,,0.00,Wunderground v.1.15,2013-03-14 19:30:00,
2013-03-14 15:35:00,51.7,24.9,30.14,NW,313,3.0,3.0,35,0.00,,,0.00,Wunderground v.1.15,2013-03-14 19:35:00,
2013-03-14 15:45:00,52.2,24.6,30.14,WNW,292,2.0,3.0,34,0.00,,,0.00,Wunderground v.1.15,2013-03-14 19:45:00,
2013-03-14 15:55:00,53.1,25.4,30.14,WNW,303,2.0,2.0,34,0.00,,,0.00,Wunderground v.1.15,2013-03-14 19:55:00,
2013-03-14 16:05:00,52.8,24.5,30.14,NW,319,3.0,4.0,33,0.00,,,0.00,Wunderground v.1.15,2013-03-14 20:05:00,
2013-03-14 16:15:00,53.2,24.8,30.13,NW,319,3.0,3.0,33,0.00,,,0.00,Wunderground v.1.15,2013-03-14 20:15:00,
2013-03-14 16:25:00,53.1,24.7,30.13,North,350,3.0,4.0,33,0.00,,,0.00,Wunderground v.1.15,2013-03-14 20:25:00,
2013-03-14 16:30:00,53.5,25.1,30.13,West,262,3.0,3.0,33,0.00,,,0.00,Wunderground v.1.15,2013-03-14 20:30:00,
2013-03-14 16:40:00,53.4,23.5,30.13,SSE,158,3.0,3.0,31,0.00,,,0.00,Wunderground v.1.15,2013-03-14 20:40:00,
2013-03-14 16:45:00,53.3,23.4,30.13,West,273,3.0,5.0,31,0.00,,,0.00,Wunderground v.1.15,2013-03-14 20:45:00,
2013-03-14 16:50:00,53.2,23.3,30.13,NNW,327,3.0,4.0,31,0.00,,,0.00,Wunderground v.1.15,2013-03-14 20:50:00,
2013-03-14 16:55:00,53.2,24.1,30.12,NW,321,2.0,4.0,32,0.00,,,0.00,Wunderground v.1.15,2013-03-14 20:55:00,
2013-03-14 17:05:00,53.1,24.0,30.12,ESE,103,4.0,4.0,32,0.00,,,0.00,Wunderground v.1.15,2013-03-14 21:05:00,
2013-03-14 17:15:00,53.4,24.2,30.12,NNW,331,2.0,3.0,32,0.00,,,0.00,Wunderground v.1.15,2013-03-14 21:15:00,
2013-03-14 17:20:00,53.9,25.4,30.11,SE,125,2.0,2.0,33,0.00,,,0.00,Wunderground v.1.15,2013-03-14 21:20:00,
2013-03-14 17:25:00,54.1,24.1,30.11,WNW,297,2.0,2.0,31,0.00,,,0.00,Wunderground v.1.15,2013-03-14 21:25:00,
2013-03-14 17:30:00,54.0,24.0,30.12,NW,308,3.0,3.0,31,0.00,,,0.00,Wunderground v.1.15,2013-03-14 21:30:00,
2013-03-14 17:40:00,53.4,23.5,30.12,SSW,193,3.0,4.0,31,0.00,,,0.00,Wunderground v.1.15,2013-03-14 21:40:00,
2013-03-14 17:45:00,53.5,22.8,30.12,WNW,296,3.0,5.0,30,0.00,,,0.00,Wunderground v.1.15,2013-03-14 21:45:00,
2013-03-14 17:50:00,53.1,22.4,30.12,WNW,290,3.0,3.0,30,0.00,,,0.00,Wunderground v.1.15,2013-03-14 21:50:00,
2013-03-14 17:55:00,53.2,22.5,30.12,WNW,285,2.0,6.0,30,0.00,,,0.00,Wunderground v.1.15,2013-03-14 21:55:00,
2013-03-14 18:00:00,53.1,22.4,30.12,WSW,246,2.0,2.0,30,0.00,,,0.00,Wunderground v.1.15,2013-03-14 22:00:00,
2013-03-14 18:05:00,53.0,23.1,30.12,WNW,303,2.0,2.0,31,0.00,,,0.00,Wunderground v.1.15,2013-03-14 22:05:00,
2013-03-14 18:15:00,52.4,22.6,30.12,NNW,337,3.0,5.0,31,0.00,,,0.00,Wunderground v.1.15,2013-03-14 22:15:00,
2013-03-14 18:20:00,52.3,22.5,30.12,WNW,302,3.0,3.0,31,0.00,,,0.00,Wunderground v.1.15,2013-03-14 22:20:00,
2013-03-14 18:30:00,51.9,21.4,30.12,WNW,288,2.0,2.0,30,0.00,,,0.00,Wunderground v.1.15,2013-03-14 22:30:00,
2013-03-14 18:40:00,51.5,21.8,30.12,NNW,344,1.0,2.0,31,0.00,,,0.00,Wunderground v.1.15,2013-03-14 22:40:00,
2013-03-14 18:45:00,51.2,20.8,30.12,WSW,253,1.0,2.0,30,0.00,,,0.00,Wunderground v.1.15,2013-03-14 22:45:00,
2013-03-14 18:50:00,50.9,22.1,30.13,WNW,288,1.0,1.0,32,0.00,,,0.00,Wunderground v.1.15,2013-03-14 22:50:00,
2013-03-14 19:00:00,50.1,20.6,30.13,WNW,303,1.0,1.0,31,0.00,,,0.00,Wunderground v.1.15,2013-03-14 23:00:00,
2013-03-14 19:05:00,49.8,20.3,30.13,WNW,302,1.0,1.0,31,0.00,,,0.00,Wunderground v.1.15,2013-03-14 23:05:00,
2013-03-14 19:15:00,49.2,20.6,30.13,WNW,296,1.0,1.0,32,0.00,,,0.00,Wunderground v.1.15,2013-03-14 23:15:00,
2013-03-14 19:20:00,49.0,21.1,30.13,WNW,282,1.0,1.0,33,0.00,,,0.00,Wunderground v.1.15,2013-03-14 23:20:00,
2013-03-14 19:25:00,48.6,21.5,30.13,WNW,298,0.0,1.0,34,0.00,,,0.00,Wunderground v.1.15,2013-03-14 23:25:00,
2013-03-14 19:30:00,48.2,21.1,30.13,WNW,298,0.0,0.0,34,0.00,,,0.00,Wunderground v.1.15,2013-03-14 23:30:00,
2013-03-14 19:40:00,47.5,21.8,30.13,WNW,298,0.0,0.0,36,0.00,,,0.00,Wunderground v.1.15,2013-03-14 23:40:00,
2013-03-14 19:45:00,47.1,21.5,30.13,WNW,298,0.0,0.0,36,0.00,,,0.00,Wunderground v.1.15,2013-03-14 23:45:00,
2013-03-14 19:50:00,46.7,21.8,30.14,WNW,299,0.0,0.0,37,0.00,,,0.00,Wunderground v.1.15,2013-03-14 23:50:00,
2013-03-14 19:55:00,46.3,22.0,30.14,WNW,299,0.0,0.0,38,0.00,,,0.00,Wunderground v.1.15,2013-03-14 23:55:00,
2013-03-14 20:00:00,45.9,22.3,30.14,WNW,299,0.0,0.0,39,0.00,,,0.00,Wunderground v.1.15,2013-03-15 00:00:00,
2013-03-14 20:05:00,45.4,21.9,30.14,WNW,299,0.0,0.0,39,0.00,,,0.00,Wunderground v.1.15,2013-03-15 00:05:00,
2013-03-14 20:15:00,44.5,22.2,30.14,WNW,299,0.0,0.0,41,0.00,,,0.00,Wunderground v.1.15,2013-03-15 00:15:00,
2013-03-14 20:20:00,44.0,21.2,30.14,WNW,299,0.0,0.0,40,0.00,,,0.00,Wunderground v.1.15,2013-03-15 00:20:00,
2013-03-14 20:25:00,43.4,21.8,30.14,WNW,299,0.0,0.0,42,0.00,,,0.00,Wunderground v.1.15,2013-03-15 00:25:00,
2013-03-14 20:35:00,42.3,23.0,30.14,WNW,299,0.0,0.0,46,0.00,,,0.00,Wunderground v.1.15,2013-03-15 00:35:00,
2013-03-14 20:40:00,41.7,22.4,30.14,WNW,299,0.0,0.0,46,0.00,,,0.00,Wunderground v.1.15,2013-03-15 00:40:00,
2013-03-14 20:50:00,40.6,22.9,30.15,WNW,299,0.0,0.0,49,0.00,,,0.00,Wunderground v.1.15,2013-03-15 00:50:00,
2013-03-14 20:55:00,40.2,23.0,30.15,WNW,299,0.0,0.0,50,0.00,,,0.00,Wunderground v.1.15,2013-03-15 00:55:00,
2013-03-14 21:00:00,39.7,24.0,30.15,WNW,299,0.0,0.0,53,0.00,,,0.00,Wunderground v.1.15,2013-03-15 01:00:00,
2013-03-14 21:05:00,39.2,23.5,30.15,WNW,299,0.0,0.0,53,0.00,,,0.00,Wunderground v.1.15,2013-03-15 01:05:00,
2013-03-14 21:15:00,38.4,23.2,30.15,WNW,299,0.0,0.0,54,0.00,,,0.00,Wunderground v.1.15,2013-03-15 01:15:00,
2013-03-14 21:20:00,38.0,23.3,30.15,WNW,299,0.0,0.0,55,0.00,,,0.00,Wunderground v.1.15,2013-03-15 01:20:00,
2013-03-14 21:25:00,37.6,24.1,30.15,WNW,299,0.0,0.0,58,0.00,,,0.00,Wunderground v.1.15,2013-03-15 01:25:00,
2013-03-14 21:30:00,37.1,23.7,30.15,WNW,299,0.0,0.0,58,0.00,,,0.00,Wunderground v.1.15,2013-03-15 01:30:00,
2013-03-14 21:35:00,36.8,24.2,30.16,WNW,299,0.0,0.0,60,0.00,,,0.00,Wunderground v.1.15,2013-03-15 01:35:00,
2013-03-14 21:40:00,36.5,23.5,30.16,WNW,299,0.0,0.0,59,0.00,,,0.00,Wunderground v.1.15,2013-03-15 01:40:00,
2013-03-14 21:45:00,36.2,24.0,30.15,WNW,299,0.0,0.0,61,0.00,,,0.00,Wunderground v.1.15,2013-03-15 01:45:00,
2013-03-14 21:55:00,35.6,25.0,30.16,WNW,299,0.0,0.0,65,0.00,,,0.00,Wunderground v.1.15,2013-03-15 01:55:00,
2013-03-14 22:00:00,35.2,25.3,30.16,WNW,299,0.0,0.0,67,0.00,,,0.00,Wunderground v.1.15,2013-03-15 02:00:00,
2013-03-14 22:05:00,34.9,25.4,30.16,WNW,299,0.0,0.0,68,0.00,,,0.00,Wunderground v.1.15,2013-03-15 02:05:00,
2013-03-14 22:15:00,34.4,25.3,30.16,WNW,299,0.0,0.0,69,0.00,,,0.00,Wunderground v.1.15,2013-03-15 02:15:00,
2013-03-14 22:25:00,34.0,24.9,30.16,WNW,299,0.0,0.0,69,0.00,,,0.00,Wunderground v.1.15,2013-03-15 02:25:00,
2013-03-14 22:35:00,33.7,25.6,30.16,WNW,299,0.0,0.0,72,0.00,,,0.00,Wunderground v.1.15,2013-03-15 02:35:00,
2013-03-14 22:40:00,33.5,25.4,30.17,WNW,299,0.0,0.0,72,0.00,,,0.00,Wunderground v.1.15,2013-03-15 02:40:00,
2013-03-14 22:45:00,33.3,25.2,30.17,WNW,299,0.0,0.0,72,0.00,,,0.00,Wunderground v.1.15,2013-03-15 02:45:00,
2013-03-14 22:55:00,32.9,25.2,30.17,WNW,299,0.0,0.0,73,0.00,,,0.00,Wunderground v.1.15,2013-03-15 02:55:00,
2013-03-14 23:00:00,32.7,25.0,30.17,WNW,299,0.0,0.0,73,0.00,,,0.00,Wunderground v.1.15,2013-03-15 03:00:00,
2013-03-14 23:05:00,32.6,25.2,30.16,WNW,299,0.0,0.0,74,0.00,,,0.00,Wunderground v.1.15,2013-03-15 03:05:00,
2013-03-14 23:15:00,32.5,25.5,30.17,WNW,299,0.0,0.0,75,0.00,,,0.00,Wunderground v.1.15,2013-03-15 03:15:00,
2013-03-14 23:20:00,32.3,25.3,30.17,WNW,299,0.0,0.0,75,0.00,,,0.00,Wunderground v.1.15,2013-03-15 03:20:00,
2013-03-14 23:25:00,32.1,25.1,30.17,WNW,299,0.0,0.0,75,0.00,,,0.00,Wunderground v.1.15,2013-03-15 03:25:00,
2013-03-14 23:30:00,32.0,25.3,30.17,WNW,299,0.0,0.0,76,0.00,,,0.00,Wunderground v.1.15,2013-03-15 03:30:00,
2013-03-14 23:40:00,32.0,25.6,30.17,WNW,299,0.0,0.0,77,0.00,,,0.00,Wunderground v.1.15,2013-03-15 03:40:00,
2013-03-14 23:45:00,31.9,25.5,30.17,WNW,299,0.0,0.0,77,0.00,,,0.00,Wunderground v.1.15,2013-03-15 03:45:00,
2013-03-14 23:50:00,31.7,25.3,30.17,WNW,299,0.0,0.0,77,0.00,,,0.00,Wunderground v.1.15,2013-03-15 03:50:00,